Time;durP1;ratioP1;P1;durP2;ratioP2;P2;SDS_P1;SDS_P2;PMS_P1;PMS_P2;Temp;Humidity;BMP_temperature;BMP_pressure;BME280_temperature;BME280_humidity;BME280_pressure;Samples;Min_cycle;Max_cycle;Signal;HPM_P1;HPM_P2
2024/02/16 00:04:44;;;;;;;51.00;28.30;;;;;;;7.30;67.62;99591.70;231899;204;153398;-64
2024/02/16 00:09:47;;;;;;;48.50;28.40;;;;;;;7.32;67.59;99590.70;231924;203;137605;-64
2024/02/16 00:14:50;;;;;;;50.00;28.30;;;;;;;7.30;67.51;99589.38;231918;198;139410;-65
2024/02/16 00:19:55;;;;;;;47.40;28.40;;;;;;;7.24;67.48;99591.77;231961;198;154151;-64
2024/02/16 00:24:58;;;;;;;45.40;27.70;;;;;;;7.20;67.35;99586.09;231992;197;138255;-63
2024/02/16 00:30:03;;;;;;;49.00;27.60;;;;;;;7.13;67.36;99585.48;231900;201;138578;-64
2024/02/16 00:35:07;;;;;;;46.70;27.40;;;;;;;7.05;67.45;99582.27;231792;198;153029;-64
2024/02/16 00:40:12;;;;;;;48.90;28.60;;;;;;;6.98;67.69;99584.67;232008;202;137639;-63
2024/02/16 00:45:15;;;;;;;43.00;26.20;;;;;;;6.96;67.74;99579.27;232181;201;141023;-63
2024/02/16 00:50:18;;;;;;;46.90;28.40;;;;;;;6.90;67.83;99584.06;232282;200;152295;-64
2024/02/16 00:55:22;;;;;;;50.20;27.10;;;;;;;6.88;67.82;99580.80;232208;204;137876;-66
2024/02/16 01:00:25;;;;;;;52.40;28.50;;;;;;;6.83;67.88;99576.07;232209;197;138060;-63
2024/02/16 01:05:29;;;;;;;48.60;27.30;;;;;;;6.72;67.64;99569.59;232316;200;153294;-62
2024/02/16 01:10:32;;;;;;;49.40;28.30;;;;;;;6.62;67.74;99566.61;232318;196;137414;-62
2024/02/16 01:15:37;;;;;;;45.10;27.30;;;;;;;6.55;67.78;99563.19;232276;204;137741;-61
2024/02/16 01:20:40;;;;;;;44.70;27.90;;;;;;;6.46;67.71;99557.86;232193;202;153324;-63
2024/02/16 01:25:43;;;;;;;46.20;27.10;;;;;;;6.42;67.94;99558.72;232122;204;137255;-62
2024/02/16 01:30:47;;;;;;;48.10;26.60;;;;;;;6.37;67.92;99559.80;231808;198;138243;-61
2024/02/16 01:35:50;;;;;;;47.60;26.60;;;;;;;6.36;67.86;99560.16;232065;198;153796;-60
2024/02/16 01:40:53;;;;;;;55.80;29.20;;;;;;;6.39;67.64;99560.22;232087;201;140569;-61
2024/02/16 01:45:58;;;;;;;50.70;29.80;;;;;;;6.38;67.51;99550.20;232233;197;137990;-62
2024/02/16 01:51:03;;;;;;;56.70;31.00;;;;;;;6.39;67.36;99548.23;231979;197;153676;-62
2024/02/16 01:56:07;;;;;;;64.00;31.80;;;;;;;6.37;67.35;99544.08;231931;198;138184;-63
2024/02/16 02:01:10;;;;;;;52.30;31.10;;;;;;;6.34;67.32;99546.15;231857;204;138071;-61
2024/02/16 02:06:14;;;;;;;53.70;30.90;;;;;;;6.29;67.36;99546.88;231706;204;153597;-62
2024/02/16 02:11:17;;;;;;;62.80;32.90;;;;;;;6.21;67.27;99546.97;232107;198;138453;-64
2024/02/16 02:16:21;;;;;;;57.10;33.30;;;;;;;6.08;67.45;99548.67;231801;197;137472;-65
2024/02/16 02:21:25;;;;;;;65.40;33.50;;;;;;;6.02;67.53;99546.79;232099;198;153024;-65
2024/02/16 02:26:28;;;;;;;59.90;33.60;;;;;;;5.93;67.66;99542.33;232117;204;139421;-67
2024/02/16 02:31:31;;;;;;;65.80;33.90;;;;;;;5.92;67.93;99540.42;232280;197;138032;-67
2024/02/16 02:36:35;;;;;;;63.00;33.30;;;;;;;5.92;68.04;99539.88;232028;197;153404;-66
2024/02/16 02:41:39;;;;;;;55.60;33.30;;;;;;;5.90;68.17;99537.46;232194;204;139690;-66
2024/02/16 02:46:42;;;;;;;56.60;33.70;;;;;;;5.86;68.38;99537.96;232231;204;137728;-66
2024/02/16 02:51:45;;;;;;;52.60;32.20;;;;;;;5.83;68.59;99539.48;232241;204;153467;-65
2024/02/16 02:56:49;;;;;;;56.10;33.60;;;;;;;5.78;68.65;99543.52;232175;200;138931;-67
2024/02/16 03:01:52;;;;;;;61.30;32.80;;;;;;;5.77;68.67;99542.52;232283;201;137934;-63
2024/02/16 03:06:55;;;;;;;53.80;31.20;;;;;;;5.76;68.72;99546.76;232373;204;153197;-64
2024/02/16 03:11:59;;;;;;;55.40;32.00;;;;;;;5.82;68.68;99551.30;232167;198;137798;-65
2024/02/16 03:17:03;;;;;;;56.40;31.30;;;;;;;5.86;68.57;99554.87;232362;204;138796;-64
2024/02/16 03:22:07;;;;;;;60.50;32.50;;;;;;;5.86;68.44;99552.76;232306;198;153488;-64
2024/02/16 03:27:10;;;;;;;55.30;32.00;;;;;;;5.83;68.57;99553.75;232152;201;137767;-66
2024/02/16 03:32:14;;;;;;;57.80;32.50;;;;;;;5.79;68.50;99552.84;232116;198;138435;-65
2024/02/16 03:37:17;;;;;;;67.10;33.60;;;;;;;5.77;68.54;99550.94;232034;197;153184;-65
2024/02/16 03:42:20;;;;;;;71.20;32.90;;;;;;;5.75;68.58;99550.51;231940;198;138469;-65
2024/02/16 03:47:24;;;;;;;56.50;32.30;;;;;;;5.66;68.33;99550.64;232293;204;138006;-65
2024/02/16 03:52:27;;;;;;;54.40;31.80;;;;;;;5.55;68.58;99549.95;232264;201;155664;-65
2024/02/16 03:57:31;;;;;;;59.30;33.00;;;;;;;5.49;68.78;99552.08;232059;204;137610;-65
2024/02/16 04:02:36;;;;;;;57.80;35.40;;;;;;;5.43;69.01;99549.63;232134;201;138106;-65
2024/02/16 04:07:40;;;;;;;59.10;33.50;;;;;;;5.38;69.30;99544.52;231930;198;153218;-64
2024/02/16 04:12:45;;;;;;;54.20;33.40;;;;;;;5.38;69.45;99539.05;232076;204;138069;-64
2024/02/16 04:17:49;;;;;;;59.30;32.00;;;;;;;5.39;69.34;99538.13;232169;204;138892;-64
2024/02/16 04:22:53;;;;;;;54.50;32.00;;;;;;;5.41;69.27;99538.79;232098;205;153942;-64
2024/02/16 04:27:56;;;;;;;59.50;33.80;;;;;;;5.44;69.02;99537.79;232170;204;139454;-64
2024/02/16 04:33:00;;;;;;;56.60;33.20;;;;;;;5.49;69.18;99542.73;232144;204;137602;-65
2024/02/16 04:38:03;;;;;;;56.20;34.30;;;;;;;5.55;69.11;99548.36;232174;197;153228;-64
2024/02/16 04:43:07;;;;;;;57.80;34.90;;;;;;;5.59;69.43;99548.55;231860;198;137458;-64
2024/02/16 04:48:10;;;;;;;57.00;33.70;;;;;;;5.67;69.43;99547.60;232177;204;137887;-63
2024/02/16 04:53:13;;;;;;;71.10;34.90;;;;;;;5.72;69.20;99548.30;232137;201;155035;-64
2024/02/16 04:58:16;;;;;;;65.50;35.30;;;;;;;5.74;69.07;99551.76;232218;198;139716;-63
2024/02/16 05:03:20;;;;;;;59.40;32.60;;;;;;;5.74;68.76;99549.13;232021;198;138057;-64
2024/02/16 05:08:23;;;;;;;59.60;33.10;;;;;;;5.67;68.29;99544.79;232092;201;154173;-62
2024/02/16 05:13:26;;;;;;;54.10;32.30;;;;;;;5.57;67.95;99542.45;232120;204;137608;-64
2024/02/16 05:18:29;;;;;;;58.60;32.40;;;;;;;5.51;67.64;99542.67;232123;201;142887;-65
2024/02/16 05:23:33;;;;;;;64.00;32.70;;;;;;;5.42;67.55;99541.57;232110;201;153364;-64
2024/02/16 05:28:37;;;;;;;53.60;31.70;;;;;;;5.31;67.63;99542.10;232119;197;138560;-64
2024/02/16 05:33:40;;;;;;;57.80;31.10;;;;;;;5.25;68.04;99547.23;232160;198;137077;-64
2024/02/16 05:38:44;;;;;;;60.30;31.60;;;;;;;5.20;68.17;99548.78;232045;198;153216;-62
2024/02/16 05:43:48;;;;;;;58.00;31.20;;;;;;;5.20;68.44;99553.52;231911;197;137565;-64
2024/02/16 05:48:51;;;;;;;51.40;29.40;;;;;;;5.26;68.59;99555.83;232073;201;137742;-64
2024/02/16 05:53:54;;;;;;;61.70;32.90;;;;;;;5.40;68.67;99556.59;232041;197;153583;-61
2024/02/16 05:58:58;;;;;;;99.10;65.40;;;;;;;5.49;69.30;99556.81;232079;202;137214;-64
2024/02/16 06:04:01;;;;;;;145.80;96.30;;;;;;;5.67;69.23;99560.08;232160;198;138022;-64
2024/02/16 06:09:06;;;;;;;50.80;34.30;;;;;;;5.75;68.58;99561.93;232074;201;153726;-64
2024/02/16 06:14:09;;;;;;;311.80;237.40;;;;;;;5.69;68.15;99568.65;232125;198;137571;-62
2024/02/16 06:19:12;;;;;;;65.30;40.60;;;;;;;5.60;68.17;99570.00;232076;198;137952;-62
2024/02/16 06:24:16;;;;;;;276.80;200.90;;;;;;;5.58;68.68;99577.98;231952;201;153323;-63
2024/02/16 06:29:19;;;;;;;62.70;39.60;;;;;;;5.58;69.09;99581.52;232188;204;137614;-64
2024/02/16 06:34:22;;;;;;;44.30;29.90;;;;;;;5.61;69.44;99580.54;231960;204;137821;-62
2024/02/16 06:39:26;;;;;;;46.10;28.30;;;;;;;5.65;69.95;99579.35;232006;201;152979;-64
2024/02/16 06:44:29;;;;;;;46.60;27.70;;;;;;;5.70;70.39;99579.68;232054;198;137183;-63
2024/02/16 06:49:33;;;;;;;45.60;26.90;;;;;;;5.85;70.24;99576.19;232108;198;138265;-63
2024/02/16 06:54:36;;;;;;;44.90;27.80;;;;;;;5.97;70.28;99574.59;232015;201;154013;-63
2024/02/16 06:59:40;;;;;;;44.20;27.20;;;;;;;6.10;70.35;99575.89;232085;198;138302;-61
2024/02/16 07:04:45;;;;;;;40.10;25.60;;;;;;;6.25;70.30;99567.98;232180;198;138179;-63
2024/02/16 07:09:49;;;;;;;41.30;26.80;;;;;;;6.39;70.15;99566.77;231984;197;153609;-62
2024/02/16 07:14:52;;;;;;;45.20;26.60;;;;;;;6.49;70.09;99568.15;232115;198;138973;-62
2024/02/16 07:19:55;;;;;;;44.10;28.10;;;;;;;6.58;70.00;99567.98;231917;202;137215;-63
2024/02/16 07:24:59;;;;;;;81.20;50.60;;;;;;;6.73;70.50;99572.75;232113;204;153381;-64
2024/02/16 07:30:04;;;;;;;43.60;26.90;;;;;;;6.89;70.30;99574.95;232290;204;138559;-64
2024/02/16 07:35:10;;;;;;;43.10;25.90;;;;;;;6.97;69.73;99567.94;232221;197;137965;-63
2024/02/16 07:40:13;;;;;;;45.10;26.90;;;;;;;7.02;69.53;99573.73;232470;204;153683;-63
2024/02/16 07:45:16;;;;;;;45.30;27.40;;;;;;;7.12;69.52;99573.02;232249;200;140350;-64
2024/02/16 07:50:23;;;;;;;44.00;25.50;;;;;;;7.22;69.43;99570.48;232252;201;137957;-63
2024/02/16 07:55:27;;;;;;;39.60;24.90;;;;;;;7.35;69.31;99564.48;232136;204;153785;-63
2024/02/16 08:00:30;;;;;;;45.30;26.50;;;;;;;7.50;69.01;99560.86;232203;202;137780;-60
2024/02/16 08:05:33;;;;;;;164.50;103.40;;;;;;;7.69;69.22;99564.83;232345;204;138220;-60
2024/02/16 08:10:36;;;;;;;62.70;29.00;;;;;;;7.88;68.96;99566.17;232359;204;153177;-61
2024/02/16 08:15:40;;;;;;;49.30;28.80;;;;;;;8.01;68.62;99563.15;232407;204;139365;-60
2024/02/16 08:20:43;;;;;;;45.90;27.40;;;;;;;8.13;68.36;99561.55;232341;197;139077;-60
2024/02/16 08:25:46;;;;;;;73.50;45.60;;;;;;;8.29;69.24;99561.58;232049;198;154806;-59
2024/02/16 08:30:50;;;;;;;43.70;26.50;;;;;;;8.49;68.54;99563.02;232050;198;139282;-61
2024/02/16 08:35:53;;;;;;;37.70;24.60;;;;;;;8.60;68.11;99565.88;231985;204;138225;-61
2024/02/16 08:40:56;;;;;;;40.20;23.60;;;;;;;8.71;67.97;99565.69;232023;201;154417;-60
2024/02/16 08:45:59;;;;;;;38.20;22.40;;;;;;;8.86;67.83;99562.57;232256;204;137579;-61
2024/02/16 08:51:03;;;;;;;40.90;21.80;;;;;;;8.99;67.64;99560.19;232090;201;138687;-61
2024/02/16 08:56:13;;;;;;;44.80;22.40;;;;;;;9.14;67.64;99563.01;231964;198;153012;-61
2024/02/16 09:01:16;;;;;;;52.60;22.90;;;;;;;9.29;67.40;99558.19;231942;198;138533;-61
2024/02/16 09:06:19;;;;;;;51.00;25.80;;;;;;;9.44;67.28;99553.41;232151;201;140191;-60
2024/02/16 09:11:24;;;;;;;36.20;22.20;;;;;;;9.60;67.11;99552.05;232117;204;153861;-61
2024/02/16 09:16:27;;;;;;;34.20;21.50;;;;;;;9.77;66.65;99550.54;232209;204;140880;-53
2024/02/16 09:21:30;;;;;;;40.00;24.90;;;;;;;9.96;66.88;99550.59;232056;201;137394;-52
2024/02/16 09:26:33;;;;;;;28.30;17.00;;;;;;;10.19;65.99;99548.89;232010;204;153122;-51
2024/02/16 09:31:37;;;;;;;26.30;16.90;;;;;;;10.43;65.68;99546.25;231881;201;139132;-50
2024/02/16 09:36:40;;;;;;;26.60;16.50;;;;;;;10.66;65.29;99543.91;231918;204;140057;-49
2024/02/16 09:41:49;;;;;;;145.40;95.60;;;;;;;10.95;65.50;99543.60;231938;204;153188;-51
2024/02/16 09:46:54;;;;;;;26.30;18.10;;;;;;;11.23;64.62;99541.83;232123;204;138365;-50
2024/02/16 09:52:03;;;;;;;30.30;19.60;;;;;;;11.36;64.01;99542.88;232167;198;138344;-51
2024/02/16 09:57:06;;;;;;;158.70;122.60;;;;;;;11.54;64.09;99545.58;231951;198;153030;-53
2024/02/16 10:02:09;;;;;;;82.20;59.60;;;;;;;11.75;64.50;99542.02;231820;201;138419;-52
2024/02/16 10:07:13;;;;;;;34.60;18.60;;;;;;;12.01;63.72;99537.34;232062;198;138284;-54
2024/02/16 10:12:19;;;;;;;31.40;18.40;;;;;;;12.20;62.87;99532.98;232075;201;154363;-53
2024/02/16 10:17:23;;;;;;;89.40;52.20;;;;;;;12.41;62.49;99529.89;232113;201;138433;-52
2024/02/16 10:22:26;;;;;;;41.60;24.10;;;;;;;12.66;61.82;99526.02;232150;204;138444;-58
2024/02/16 10:27:31;;;;;;;36.70;19.20;;;;;;;12.91;60.90;99516.11;231990;198;153036;-58
2024/02/16 10:32:34;;;;;;;34.40;18.40;;;;;;;13.12;60.47;99518.85;231535;198;138637;-56
2024/02/16 10:37:38;;;;;;;33.40;19.30;;;;;;;13.38;59.89;99508.60;232091;201;138462;-60
2024/02/16 10:42:42;;;;;;;44.00;20.00;;;;;;;13.64;59.78;99502.98;232096;202;154010;-59
2024/02/16 10:47:45;;;;;;;37.00;18.60;;;;;;;13.90;59.26;99497.98;232111;204;139684;-57
2024/02/16 10:52:50;;;;;;;32.20;17.60;;;;;;;14.13;59.01;99492.61;231908;204;141504;-57
2024/02/16 10:57:56;;;;;;;37.90;18.10;;;;;;;14.39;58.43;99491.55;232344;201;155031;-64
2024/02/16 11:03:03;;;;;;;29.10;16.10;;;;;;;14.61;57.90;99483.23;232252;204;138481;-63
2024/02/16 11:08:13;;;;;;;29.60;14.80;;;;;;;14.85;57.57;99480.05;232308;202;137782;-63
2024/02/16 11:13:23;;;;;;;24.30;12.80;;;;;;;15.08;56.90;99466.80;232306;200;154290;-62
2024/02/16 11:18:30;;;;;;;33.40;12.80;;;;;;;15.30;56.00;99457.08;232142;204;138007;-62
2024/02/16 11:23:36;;;;;;;20.40;10.70;;;;;;;15.53;55.72;99451.05;232356;204;137933;-62
2024/02/16 11:28:42;;;;;;;20.40;10.90;;;;;;;15.69;54.81;99440.94;232206;204;153247;-64
2024/02/16 11:33:46;;;;;;;20.50;11.00;;;;;;;15.75;54.70;99436.71;232414;204;141400;-59
2024/02/16 11:38:50;;;;;;;17.30;10.60;;;;;;;15.94;54.79;99436.14;232348;200;142233;-60
2024/02/16 11:43:59;;;;;;;21.00;10.60;;;;;;;16.17;54.16;99435.36;232162;200;153285;-60
2024/02/16 11:49:06;;;;;;;18.80;10.70;;;;;;;16.40;53.86;99431.30;232246;196;140956;-60
2024/02/16 11:54:12;;;;;;;22.90;10.80;;;;;;;16.66;53.17;99421.33;232119;204;137628;-61
2024/02/16 11:59:19;;;;;;;17.80;10.40;;;;;;;17.00;53.03;99415.64;231946;198;155452;-60
2024/02/16 12:04:25;;;;;;;19.20;9.90;;;;;;;17.38;52.54;99417.89;232181;201;138026;-62
2024/02/16 12:09:29;;;;;;;14.90;10.10;;;;;;;17.63;51.56;99418.30;232254;201;137537;-60
2024/02/16 12:14:34;;;;;;;21.00;10.60;;;;;;;17.89;51.49;99413.00;232050;204;154584;-60
2024/02/16 12:19:43;;;;;;;18.10;10.20;;;;;;;18.14;50.37;99414.27;232067;201;138233;-61
2024/02/16 12:24:50;;;;;;;18.20;9.80;;;;;;;18.36;49.75;99404.42;232034;201;139549;-61
2024/02/16 12:29:54;;;;;;;14.20;9.10;;;;;;;18.40;49.44;99396.12;232095;204;154016;-59
2024/02/16 12:34:57;;;;;;;15.30;10.00;;;;;;;18.48;49.08;99397.39;232271;196;137353;-60
2024/02/16 12:40:02;;;;;;;18.60;9.40;;;;;;;18.46;48.61;99399.24;232373;204;138771;-61
2024/02/16 12:45:05;;;;;;;15.60;8.50;;;;;;;18.44;48.36;99394.71;232210;204;152951;-60
2024/02/16 12:50:09;;;;;;;15.50;8.00;;;;;;;18.45;48.22;99394.97;231959;202;150469;-61
2024/02/16 12:55:13;;;;;;;14.00;7.60;;;;;;;18.40;47.93;99391.81;232080;201;138089;-60
2024/02/16 13:00:17;;;;;;;12.80;8.50;;;;;;;18.37;47.89;99390.45;231760;204;153363;-59
2024/02/16 13:05:21;;;;;;;11.60;7.30;;;;;;;18.36;47.99;99390.37;232144;197;139358;-60
2024/02/16 13:10:24;;;;;;;10.20;6.90;;;;;;;18.32;48.09;99384.67;232183;199;136942;-59
2024/02/16 13:15:27;;;;;;;10.70;6.80;;;;;;;18.31;48.08;99378.25;231951;204;153530;-61
2024/02/16 13:20:31;;;;;;;10.60;6.80;;;;;;;18.38;48.01;99371.35;232194;201;137831;-59
2024/02/16 13:25:35;;;;;;;11.90;7.00;;;;;;;18.48;48.88;99378.04;232063;201;138943;-46
2024/02/16 13:30:38;;;;;;;15.80;6.90;;;;;;;19.05;52.19;99372.69;232065;201;153343;-48
2024/02/16 13:35:41;;;;;;;29.80;19.20;;;;;;;19.59;50.09;99366.92;232152;200;138459;-51
2024/02/16 13:40:45;;;;;;;17.10;11.40;;;;;;;19.91;49.14;99365.76;232047;201;137954;-48
2024/02/16 13:45:51;;;;;;;11.10;6.60;;;;;;;20.00;47.89;99363.79;232358;200;153434;-49
2024/02/16 13:50:54;;;;;;;11.90;7.30;;;;;;;19.91;47.50;99362.32;231916;198;139173;-50
2024/02/16 13:56:04;;;;;;;10.10;6.40;;;;;;;19.82;47.05;99356.86;232094;204;137797;-61
2024/02/16 14:01:07;;;;;;;9.50;5.70;;;;;;;19.48;45.91;99350.70;232081;198;153809;-61
2024/02/16 14:06:11;;;;;;;7.90;5.40;;;;;;;18.91;45.99;99358.55;232141;197;138108;-61
2024/02/16 14:11:15;;;;;;;9.00;5.50;;;;;;;18.45;46.45;99360.88;231986;199;138757;-61
2024/02/16 14:16:18;;;;;;;26.20;18.30;;;;;;;18.08;47.39;99362.16;232316;198;153299;-61
2024/02/16 14:21:21;;;;;;;8.90;5.70;;;;;;;17.81;47.63;99357.00;232178;201;140179;-60
2024/02/16 14:26:27;;;;;;;7.40;4.80;;;;;;;17.51;48.07;99351.29;232079;198;137760;-60
2024/02/16 14:31:31;;;;;;;8.50;4.70;;;;;;;17.26;48.23;99346.63;232035;202;153869;-62
2024/02/16 14:36:34;;;;;;;7.10;4.70;;;;;;;17.05;48.76;99342.30;232050;204;138806;-61
2024/02/16 14:41:37;;;;;;;10.80;4.50;;;;;;;16.86;49.17;99341.22;232255;198;138323;-61
2024/02/16 14:46:40;;;;;;;11.10;4.40;;;;;;;16.64;49.44;99336.84;232264;204;153561;-60
2024/02/16 14:51:44;;;;;;;14.80;10.60;;;;;;;16.47;50.09;99339.20;232287;204;139413;-60
2024/02/16 14:56:47;;;;;;;9.10;4.40;;;;;;;16.28;50.25;99338.58;232016;201;138623;-60
2024/02/16 15:01:58;;;;;;;7.50;4.50;;;;;;;16.09;50.73;99331.48;231997;203;155174;-60
2024/02/16 15:07:02;;;;;;;10.10;4.60;;;;;;;15.94;51.17;99335.76;232196;197;138416;-60
2024/02/16 15:12:06;;;;;;;10.40;4.60;;;;;;;15.78;51.72;99332.89;232275;200;138274;-60
2024/02/16 15:17:10;;;;;;;9.80;5.00;;;;;;;15.65;52.05;99337.46;232166;198;153870;-60
2024/02/16 15:22:13;;;;;;;18.00;14.70;;;;;;;15.51;52.52;99328.90;232367;201;138351;-63
2024/02/16 15:27:16;;;;;;;9.50;5.60;;;;;;;15.41;52.86;99330.36;232123;201;141950;-63
2024/02/16 15:32:20;;;;;;;14.90;5.80;;;;;;;15.29;53.14;99324.70;232115;201;153879;-64
2024/02/16 15:37:23;;;;;;;11.20;6.00;;;;;;;15.18;53.57;99323.75;232058;201;142176;-61
2024/02/16 15:42:29;;;;;;;15.30;6.20;;;;;;;15.07;53.73;99318.83;231736;204;141511;-62
2024/02/16 15:47:32;;;;;;;15.30;5.90;;;;;;;15.01;53.82;99320.58;231789;204;154176;-63
2024/02/16 15:52:36;;;;;;;14.70;5.90;;;;;;;14.92;53.98;99318.54;231983;201;139164;-62
2024/02/16 15:57:39;;;;;;;34.70;20.70;;;;;;;14.84;54.31;99320.58;232099;202;138415;-62
2024/02/16 16:02:43;;;;;;;45.90;32.10;;;;;;;14.75;54.36;99324.14;231928;198;154079;-58
2024/02/16 16:07:46;;;;;;;13.80;7.50;;;;;;;14.71;54.89;99331.77;232032;200;138500;-60
2024/02/16 16:12:49;;;;;;;11.60;7.30;;;;;;;14.61;54.80;99328.91;231968;197;138055;-58
2024/02/16 16:17:53;;;;;;;16.80;8.40;;;;;;;14.50;55.15;99326.16;231996;204;153834;-57
2024/02/16 16:22:56;;;;;;;26.30;9.40;;;;;;;14.41;55.38;99331.08;232118;201;137681;-57
2024/02/16 16:27:59;;;;;;;20.00;8.10;;;;;;;14.29;55.53;99331.08;232121;201;139014;-58
2024/02/16 16:33:03;;;;;;;25.40;10.70;;;;;;;14.16;55.92;99323.65;231967;201;154183;-57
2024/02/16 16:38:07;;;;;;;17.90;8.30;;;;;;;13.99;56.26;99332.34;232003;201;138268;-57
2024/02/16 16:43:11;;;;;;;20.80;8.70;;;;;;;13.84;56.61;99336.77;232050;204;137477;-57
2024/02/16 16:48:14;;;;;;;18.30;8.60;;;;;;;13.71;56.86;99331.27;232015;198;153590;-57
2024/02/16 16:53:18;;;;;;;21.90;8.50;;;;;;;13.60;57.12;99329.74;232155;204;137907;-57
2024/02/16 16:58:23;;;;;;;19.50;9.80;;;;;;;13.49;57.34;99330.84;232247;201;137643;-57
2024/02/16 17:03:26;;;;;;;19.90;9.90;;;;;;;13.36;57.69;99330.84;231848;204;154796;-57
2024/02/16 17:08:30;;;;;;;21.50;10.20;;;;;;;13.23;58.10;99331.04;231921;197;137665;-56
2024/02/16 17:13:33;;;;;;;30.50;11.10;;;;;;;13.09;58.38;99332.14;232062;198;139074;-59
2024/02/16 17:18:36;;;;;;;23.20;11.70;;;;;;;13.00;58.64;99331.68;232085;197;153832;-55
2024/02/16 17:23:40;;;;;;;181.80;131.00;;;;;;;12.95;58.96;99334.33;231953;197;138605;-60
2024/02/16 17:28:43;;;;;;;41.20;20.20;;;;;;;13.01;59.62;99342.08;232109;204;138483;-59
2024/02/16 17:33:46;;;;;;;31.00;12.90;;;;;;;12.93;59.18;99348.04;232303;204;153047;-59
2024/02/16 17:38:50;;;;;;;29.00;14.30;;;;;;;12.79;59.32;99351.07;232099;201;137607;-56
2024/02/16 17:43:53;;;;;;;27.20;15.30;;;;;;;12.67;59.42;99353.63;232142;196;137392;-57
2024/02/16 17:48:57;;;;;;;28.40;13.30;;;;;;;12.55;59.56;99356.73;232095;204;153928;-57
2024/02/16 17:54:00;;;;;;;26.90;14.30;;;;;;;12.45;59.85;99358.11;231965;197;140666;-57
2024/02/16 17:59:03;;;;;;;28.30;14.40;;;;;;;12.36;59.89;99365.29;232089;204;138499;-56
2024/02/16 18:04:07;;;;;;;32.10;14.60;;;;;;;12.26;60.09;99364.10;232360;204;153879;-56
2024/02/16 18:09:10;;;;;;;28.50;15.90;;;;;;;12.16;60.28;99368.14;232113;204;138476;-56
2024/02/16 18:14:14;;;;;;;27.30;15.90;;;;;;;12.07;60.42;99371.71;232142;202;140538;-58
2024/02/16 18:19:17;;;;;;;34.30;17.40;;;;;;;11.99;60.71;99371.70;231965;201;153952;-60
2024/02/16 18:24:21;;;;;;;169.20;112.60;;;;;;;11.93;61.10;99367.96;232060;201;138178;-57
2024/02/16 18:29:25;;;;;;;41.50;19.50;;;;;;;11.90;61.10;99368.17;232189;197;138672;-57
2024/02/16 18:34:28;;;;;;;33.00;17.50;;;;;;;11.75;60.97;99373.17;232286;201;154536;-60
2024/02/16 18:39:31;;;;;;;35.10;17.10;;;;;;;11.61;61.08;99370.80;232065;202;138364;-59
2024/02/16 18:44:36;;;;;;;37.20;17.10;;;;;;;11.52;61.26;99373.13;231932;204;138147;-57
2024/02/16 18:49:39;;;;;;;34.10;18.40;;;;;;;11.39;61.44;99377.63;231987;204;154205;-62
2024/02/16 18:54:46;;;;;;;37.80;18.40;;;;;;;11.29;61.65;99383.96;232051;197;137467;-62
2024/02/16 18:59:49;;;;;;;37.30;18.10;;;;;;;11.20;61.82;99382.88;232242;203;137581;-62
2024/02/16 19:04:52;;;;;;;37.90;19.90;;;;;;;11.10;61.88;99386.50;232147;204;153346;-63
2024/02/16 19:09:57;;;;;;;35.70;18.60;;;;;;;10.99;62.08;99385.70;232291;201;137921;-62
2024/02/16 19:15:00;;;;;;;35.40;20.60;;;;;;;10.86;62.35;99393.71;232042;196;138193;-62
2024/02/16 19:20:05;;;;;;;33.30;18.20;;;;;;;10.76;62.58;99394.63;231857;205;153179;-62
2024/02/16 19:25:09;;;;;;;37.30;17.80;;;;;;;10.68;62.74;99394.96;232162;204;141201;-61
2024/02/16 19:30:13;;;;;;;36.10;18.30;;;;;;;10.56;62.98;99395.98;232198;204;138176;-61
2024/02/16 19:35:21;;;;;;;38.30;19.30;;;;;;;10.47;63.00;99402.67;232174;202;153324;-61
2024/02/16 19:40:24;;;;;;;87.30;57.20;;;;;;;10.43;64.15;99404.84;232079;199;138274;-61
2024/02/16 19:45:28;;;;;;;36.70;19.40;;;;;;;10.58;64.26;99405.23;232066;200;137861;-60
2024/02/16 19:50:31;;;;;;;46.20;19.60;;;;;;;10.52;63.35;99406.14;231989;198;153655;-57
2024/02/16 19:55:34;;;;;;;38.70;19.50;;;;;;;10.38;63.47;99411.17;231896;204;141335;-59
2024/02/16 20:00:38;;;;;;;46.20;20.40;;;;;;;10.29;63.64;99417.67;231877;201;138664;-60
2024/02/16 20:05:41;;;;;;;46.70;20.50;;;;;;;10.15;63.84;99418.77;231853;202;153234;-59
2024/02/16 20:10:45;;;;;;;41.40;19.00;;;;;;;10.04;63.97;99419.02;232081;204;138210;-60
2024/02/16 20:15:48;;;;;;;77.30;42.90;;;;;;;10.02;64.75;99418.05;232064;201;137323;-60
2024/02/16 20:20:53;;;;;;;56.40;22.70;;;;;;;10.14;64.73;99420.56;232011;201;153309;-60
2024/02/16 20:25:57;;;;;;;48.90;21.00;;;;;;;10.01;64.10;99421.65;231823;198;139528;-60
2024/02/16 20:31:04;;;;;;;58.70;22.60;;;;;;;9.81;64.19;99420.95;232096;204;138267;-60
2024/02/16 20:36:09;;;;;;;56.20;22.00;;;;;;;9.66;64.45;99417.98;231974;201;153888;-60
2024/02/16 20:41:13;;;;;;;75.30;24.60;;;;;;;9.57;64.61;99426.11;232111;204;138135;-60
2024/02/16 20:46:16;;;;;;;71.20;26.40;;;;;;;9.48;64.76;99426.91;232062;204;138628;-60
2024/02/16 20:51:19;;;;;;;66.00;24.80;;;;;;;9.39;65.06;99428.97;231983;201;153296;-61
2024/02/16 20:56:23;;;;;;;107.90;62.90;;;;;;;9.34;65.21;99426.58;232236;197;138572;-60
2024/02/16 21:01:26;;;;;;;68.70;32.60;;;;;;;9.52;66.26;99430.77;232020;201;138618;-60
2024/02/16 21:06:29;;;;;;;66.80;28.50;;;;;;;9.72;65.28;99431.54;232099;204;153437;-61
2024/02/16 21:11:33;;;;;;;58.70;29.70;;;;;;;9.59;64.54;99429.55;232000;204;137767;-60
2024/02/16 21:16:36;;;;;;;64.90;30.00;;;;;;;9.48;65.16;99433.83;232166;197;137847;-59
2024/02/16 21:21:40;;;;;;;66.30;30.60;;;;;;;9.40;64.76;99434.75;232237;198;153060;-61
2024/02/16 21:26:43;;;;;;;67.30;31.80;;;;;;;9.24;64.79;99435.58;231984;204;138398;-60
2024/02/16 21:31:47;;;;;;;59.40;31.20;;;;;;;9.09;65.04;99431.20;232112;198;137820;-61
2024/02/16 21:36:57;;;;;;;68.80;30.90;;;;;;;8.99;65.20;99433.63;232134;196;152333;-60
2024/02/16 21:42:02;;;;;;;64.70;30.30;;;;;;;8.88;65.47;99432.95;232126;204;138075;-60
2024/02/16 21:47:06;;;;;;;59.40;31.40;;;;;;;8.78;65.68;99427.39;232130;196;138027;-61
2024/02/16 21:52:10;;;;;;;60.00;31.00;;;;;;;8.70;65.90;99429.02;232307;197;153372;-61
2024/02/16 21:57:13;;;;;;;62.80;31.70;;;;;;;8.64;66.11;99432.83;232023;204;139532;-60
2024/02/16 22:02:20;;;;;;;68.00;30.00;;;;;;;8.59;66.32;99433.98;232219;202;137793;-60
2024/02/16 22:07:23;;;;;;;61.20;30.00;;;;;;;8.48;66.87;99430.09;231993;201;153050;-61
2024/02/16 22:12:27;;;;;;;56.80;29.50;;;;;;;8.46;66.82;99433.20;232147;204;138655;-60
2024/02/16 22:17:30;;;;;;;60.60;28.30;;;;;;;8.39;67.06;99431.39;232198;198;138858;-60
2024/02/16 22:22:33;;;;;;;59.70;28.70;;;;;;;8.31;67.11;99432.05;232239;201;153973;-58
2024/02/16 22:27:37;;;;;;;52.20;28.80;;;;;;;8.22;67.27;99431.95;232127;196;138456;-60
2024/02/16 22:32:40;;;;;;;53.60;28.10;;;;;;;8.16;67.39;99441.61;232190;201;137775;-59
2024/02/16 22:37:43;;;;;;;54.00;29.20;;;;;;;8.11;67.51;99447.50;232097;196;153459;-60
2024/02/16 22:42:46;;;;;;;58.40;30.40;;;;;;;8.10;67.62;99451.80;232184;204;137718;-61
2024/02/16 22:47:49;;;;;;;63.00;31.00;;;;;;;8.12;67.48;99450.63;232159;201;137958;-62
2024/02/16 22:52:53;;;;;;;60.40;32.10;;;;;;;8.13;67.34;99452.16;231975;196;153182;-60
2024/02/16 22:57:56;;;;;;;65.10;33.90;;;;;;;8.12;67.18;99456.42;232222;197;137612;-62
2024/02/16 23:03:05;;;;;;;61.30;32.80;;;;;;;8.05;67.07;99456.92;232148;201;137533;-62
2024/02/16 23:08:09;;;;;;;60.60;33.10;;;;;;;7.95;67.08;99458.10;232198;204;154255;-61
2024/02/16 23:13:12;;;;;;;65.70;34.30;;;;;;;7.89;67.30;99452.91;232225;204;139094;-61